METAR Data
IDs: Format: Raw Decoded Include TAF

Data at: 1615 UTC 24 Aug 2019

PASM 241610Z AUTO 00000KT 3/4SM BR SCT039 06/06 A2987 RMK AO2
PASM 241602Z AUTO 04003KT 1 1/4SM BR BKN039 07/06 A2987 RMK AO2
PASM 241552Z AUTO 00000KT 1SM BR FEW039 06/06 A2987 RMK AO2
PASM 241502Z AUTO 36004KT 10SM BKN036 07/06 A2986 RMK AO2 SLP119 60000 T00720061 53002
PASM 241402Z AUTO 34003KT 10SM BKN036 08/07 A2985 RMK AO2 SLP117 T00780067
PASM 241302Z AUTO 00000KT 10SM OVC040 08/08 A2985 RMK AO2 SLP115 T00830078
PASM 241202Z AUTO 00000KT 10SM OVC038 09/08 A2985 RMK AO2 RAE1120 SLP115 P0000 60000 T00890078 10117 20072 51006
PASM 241138Z AUTO 00000KT 10SM SCT022 OVC036 09/08 A2985 RMK AO2 RAE20 P0000
PASM 241102Z AUTO 02003KT 6SM -RA BR SCT018 BKN025 OVC033 08/08 A2985 RMK AO2 RAB1059 SLP115 P0000 T00780078
PASM 241054Z AUTO 01004KT 8SM BKN019 BKN028 OVC033 08/07 A2985 RMK AO2
PASM 241002Z AUTO 03003KT 10SM BKN033 08/07 A2984 RMK AO2 SLP113 T00780067
PASM 240902Z AUTO 04003KT 10SM FEW034 08/07 A2984 RMK AO2 SLP112 T00780072 53012
PASM 240802Z AUTO 36005KT 10SM BKN032 09/08 A2983 RMK AO2 SLP108 T00940078 400940094
PASM 240702Z AUTO 36007KT 10SM OVC032 11/08 A2981 RMK AO2 SLP102 T01110083
PASM 240602Z AUTO 35009KT 10SM OVC032 12/08 A2980 RMK AO2 SLP098 T01170083 10150 20117 53004
PASM 240502Z AUTO 34009KT 10SM BKN030 BKN035 12/08 A2979 RMK AO2 SLP096 T01220078
PASM 240402Z AUTO 36010KT 10SM BKN031 13/07 A2979 RMK AO2 SLP093 T01330072
PASM 240302Z AUTO 35013KT 10SM FEW035 14/06 A2978 RMK AO2 SLP093 T01390061 58001
PASM 240202Z AUTO 34013KT 10SM BKN037 14/06 A2978 RMK AO2 SLP092 T01440061
PASM 240102Z AUTO 35013KT 10SM SCT028 OVC039 14/08 A2979 RMK AO2
PASM 240041Z AUTO 36013G17KT 10SM BKN028 OVC041 14/08 A2979 RMK AO2
PASM 240002Z AUTO 33012KT 10SM OVC039 14/08 A2979 RMK AO2 SLP094 T01390083 10139 20117 56000
PASM 232332Z AUTO 34015G20KT 10SM SCT021 OVC035 13/08 A2979 RMK AO2
PASM 232302Z AUTO 33013G17KT 10SM BKN021 BKN029 OVC037 13/08 A2978 RMK AO2 SLP093 T01280083
PASM 232215Z AUTO 34013G17KT 10SM BKN019 BKN024 OVC037 13/08 A2979 RMK AO2
PASM 232202Z AUTO 34011G17KT 10SM SCT019 OVC037 13/08 A2979 RMK AO2 SLP093 T01280078
PASM 232143Z AUTO 33011KT 10SM FEW019 OVC035 13/08 A2978 RMK AO2
PASM 232114Z AUTO 33012G18KT 10SM BKN024 BKN031 13/08 A2979 RMK AO2 SLP093 T01330078 52003
PASM 232108Z AUTO 36011G16KT 10SM BKN025 BKN031 13/08 A2979 RMK AO2
PASM 232102Z AUTO 34008KT 10SM SCT023 BKN031 13/07 A2979 RMK AO2
PASM 232002Z AUTO 34011KT 10SM BKN017 12/07 A2979 RMK AO2
PASM 231902Z AUTO 35015KT 10SM CLR 11/08 A2978 RMK AO2 SLP092 T01060083
PASM 231802Z AUTO 35010KT 10SM CLR 09/08 A2978 RMK AO2 SLP092 T00890078 10089 20039 51005
PASM 231702Z AUTO 01004KT 7SM CLR 06/05 A2978 RMK AO2 SLP091 T00560050
PASM 231602Z AUTO 02005KT 7SM FEW001 05/04 A2977 RMK AO2 SLP088 T00500044
PASM 231552Z AUTO 02005KT 6SM BR SCT001 04/04 A2977 RMK AO2
PASM 231543Z AUTO 01006KT 3SM BR BKN001 05/04 A2977 RMK AO2
PASM 231534Z AUTO 02005KT 1 1/4SM BR OVC001 05/04 A2977 RMK AO2
PASM 231529Z AUTO 03006KT 3/4SM BR OVC001 05/05 A2977 RMK AO2
PASM 231502Z AUTO 03005KT 1/4SM FG OVC001 04/04 A2977 RMK AO2 SLP087 T00390039 51005
PASM 231421Z AUTO 01003KT 1/4SM FG OVC001 05/05 A2976 RMK AO2
PASM 231411Z AUTO 03004KT 1/2SM FG BKN001 06/06 A2976 RMK AO2
PASM 231402Z AUTO 05003KT 3/4SM BR VV001 06/05 A2976 RMK AO2
PASM 231348Z AUTO 03004KT 1 3/4SM BR FEW003 06/06 A2976 RMK AO2
PASM 231308Z AUTO 04003KT 7SM FEW003 06/06 A2975 RMK AO2 SLP080 T00610061
PASM 231302Z AUTO 06003KT 3SM BR FEW003 06/06 A2975 RMK AO2
PASM 231300Z AUTO 06004KT 2SM BR FEW003 06/06 A2975 RMK AO2 VIS 3/4V5
PASM 231257Z AUTO 06003KT 1SM BR VV003 06/06 A2974 RMK AO2 VIS 1/2V5
PASM 231252Z AUTO 07003KT 1/2SM FG VV003 06/06 A2974 RMK AO2
PASM 231245Z AUTO 00000KT 3/4SM BR VV003 06/05 A2974 RMK AO2
PASM 231235Z AUTO 00000KT 1/2SM FG VV003 05/05 A2974 RMK AO2
PASM 231227Z AUTO 00000KT 1/4SM FG VV003 05/04 A2974 RMK AO2
PASM 231221Z AUTO 00000KT 3/4SM BR VV002 05/05 A2974 RMK AO2
PASM 231219Z AUTO 00000KT 1 1/4SM BR FEW003 06/06 A2974 RMK AO2
PASM 231202Z AUTO 01004KT 7SM CLR 06/05 A2974 RMK AO2 SLP079 T00560050 10106 20056 50002
PASM 231102Z AUTO 02004KT 10SM CLR 07/06 A2975 RMK AO2 SLP080 T00670061
PASM 231002Z AUTO 36007KT 10SM CLR 07/06 A2975 RMK AO2 SLP081 T00670061
PASM 230902Z AUTO 04003KT 7SM CLR 06/05 A2975 RMK AO2 SLP079 T00560050 53009
PASM 230802Z AUTO 34007KT 10SM BKN060 08/07 A2974 RMK AO2 SLP078 T00780067 400780078
PASM 230702Z AUTO 35008KT 10SM BKN060 09/07 A2973 RMK AO2 SLP074 T00940067
PASM 230602Z AUTO 35009KT 10SM CLR 11/07 A2972 RMK AO2 SLP072 T01060072 10178 20106 51010
PASM 230502Z AUTO 35013KT 10SM CLR 12/08 A2971 RMK AO2 SLP067 T01220078